sensor_id;sensor_type;location;lat;lon;timestamp;P1;durP1;ratioP1;P2;durP2;ratioP2
58372;SDS011;44177;43.356;27.672;2023-03-29T00:01:49;5.20;;;3.40;;
58372;SDS011;44177;43.356;27.672;2023-03-29T00:04:15;5.55;;;3.05;;
58372;SDS011;44177;43.356;27.672;2023-03-29T00:06:43;4.93;;;3.35;;
58372;SDS011;44177;43.356;27.672;2023-03-29T00:09:12;4.55;;;3.60;;
58372;SDS011;44177;43.356;27.672;2023-03-29T00:11:38;6.35;;;3.35;;
58372;SDS011;44177;43.356;27.672;2023-03-29T00:14:03;4.90;;;3.35;;
58372;SDS011;44177;43.356;27.672;2023-03-29T00:16:29;25.95;;;12.32;;
58372;SDS011;44177;43.356;27.672;2023-03-29T00:18:55;11.70;;;6.65;;
58372;SDS011;44177;43.356;27.672;2023-03-29T00:21:20;18.95;;;10.23;;
58372;SDS011;44177;43.356;27.672;2023-03-29T00:23:46;11.93;;;6.78;;
58372;SDS011;44177;43.356;27.672;2023-03-29T00:26:11;7.38;;;4.75;;
58372;SDS011;44177;43.356;27.672;2023-03-29T00:28:37;13.07;;;7.80;;
58372;SDS011;44177;43.356;27.672;2023-03-29T00:31:03;11.38;;;6.97;;
58372;SDS011;44177;43.356;27.672;2023-03-29T00:33:33;9.75;;;5.82;;
58372;SDS011;44177;43.356;27.672;2023-03-29T00:35:59;17.60;;;10.15;;
58372;SDS011;44177;43.356;27.672;2023-03-29T00:38:25;16.75;;;8.75;;
58372;SDS011;44177;43.356;27.672;2023-03-29T00:40:51;8.95;;;6.18;;
58372;SDS011;44177;43.356;27.672;2023-03-29T00:43:17;6.72;;;4.28;;
58372;SDS011;44177;43.356;27.672;2023-03-29T00:45:42;4.97;;;4.00;;
58372;SDS011;44177;43.356;27.672;2023-03-29T00:48:12;7.30;;;4.47;;
58372;SDS011;44177;43.356;27.672;2023-03-29T00:50:47;8.00;;;3.92;;
58372;SDS011;44177;43.356;27.672;2023-03-29T00:53:18;5.82;;;3.65;;
58372;SDS011;44177;43.356;27.672;2023-03-29T00:58:22;21.92;;;10.18;;
58372;SDS011;44177;43.356;27.672;2023-03-29T01:00:56;19.95;;;9.27;;
58372;SDS011;44177;43.356;27.672;2023-03-29T01:03:27;23.95;;;12.27;;
58372;SDS011;44177;43.356;27.672;2023-03-29T01:06:00;26.73;;;13.23;;
58372;SDS011;44177;43.356;27.672;2023-03-29T01:08:31;8.30;;;5.00;;
58372;SDS011;44177;43.356;27.672;2023-03-29T01:11:16;11.85;;;7.18;;
58372;SDS011;44177;43.356;27.672;2023-03-29T01:13:48;8.68;;;5.40;;
58372;SDS011;44177;43.356;27.672;2023-03-29T01:16:20;5.28;;;4.07;;
58372;SDS011;44177;43.356;27.672;2023-03-29T01:18:46;10.75;;;7.82;;
58372;SDS011;44177;43.356;27.672;2023-03-29T01:29:43;14.95;;;8.40;;
58372;SDS011;44177;43.356;27.672;2023-03-29T01:34:42;24.58;;;12.85;;
58372;SDS011;44177;43.356;27.672;2023-03-29T01:37:23;27.73;;;13.80;;
58372;SDS011;44177;43.356;27.672;2023-03-29T01:39:53;17.98;;;8.55;;
58372;SDS011;44177;43.356;27.672;2023-03-29T01:42:35;19.80;;;9.60;;
58372;SDS011;44177;43.356;27.672;2023-03-29T01:52:41;9.15;;;5.35;;
58372;SDS011;44177;43.356;27.672;2023-03-29T01:55:14;8.68;;;5.05;;
58372;SDS011;44177;43.356;27.672;2023-03-29T01:57:45;7.57;;;3.65;;
58372;SDS011;44177;43.356;27.672;2023-03-29T02:00:15;8.57;;;4.70;;
58372;SDS011;44177;43.356;27.672;2023-03-29T02:02:45;32.75;;;12.63;;
58372;SDS011;44177;43.356;27.672;2023-03-29T02:05:12;7.97;;;4.82;;
58372;SDS011;44177;43.356;27.672;2023-03-29T02:07:40;10.98;;;6.38;;
58372;SDS011;44177;43.356;27.672;2023-03-29T02:10:10;15.05;;;8.25;;
58372;SDS011;44177;43.356;27.672;2023-03-29T02:12:37;14.02;;;7.45;;
58372;SDS011;44177;43.356;27.672;2023-03-29T02:15:03;7.93;;;5.15;;
58372;SDS011;44177;43.356;27.672;2023-03-29T02:17:32;7.68;;;5.07;;
58372;SDS011;44177;43.356;27.672;2023-03-29T02:20:08;5.35;;;4.18;;
58372;SDS011;44177;43.356;27.672;2023-03-29T02:25:28;8.20;;;3.80;;
58372;SDS011;44177;43.356;27.672;2023-03-29T02:27:54;5.68;;;3.58;;
58372;SDS011;44177;43.356;27.672;2023-03-29T02:30:20;5.88;;;3.30;;
58372;SDS011;44177;43.356;27.672;2023-03-29T02:35:14;4.47;;;3.60;;
58372;SDS011;44177;43.356;27.672;2023-03-29T02:37:46;4.90;;;3.42;;
58372;SDS011;44177;43.356;27.672;2023-03-29T02:40:15;7.32;;;3.25;;
58372;SDS011;44177;43.356;27.672;2023-03-29T02:42:42;3.85;;;2.97;;
58372;SDS011;44177;43.356;27.672;2023-03-29T02:45:11;6.13;;;3.50;;
58372;SDS011;44177;43.356;27.672;2023-03-29T02:47:42;4.88;;;3.58;;
58372;SDS011;44177;43.356;27.672;2023-03-29T02:50:10;5.40;;;3.47;;
58372;SDS011;44177;43.356;27.672;2023-03-29T02:52:37;9.48;;;3.80;;
58372;SDS011;44177;43.356;27.672;2023-03-29T02:55:07;5.70;;;3.80;;
58372;SDS011;44177;43.356;27.672;2023-03-29T02:57:39;5.97;;;3.85;;
58372;SDS011;44177;43.356;27.672;2023-03-29T03:00:05;6.32;;;3.65;;
58372;SDS011;44177;43.356;27.672;2023-03-29T03:02:34;7.40;;;3.95;;
58372;SDS011;44177;43.356;27.672;2023-03-29T03:05:00;5.75;;;3.22;;
58372;SDS011;44177;43.356;27.672;2023-03-29T03:07:25;7.72;;;3.75;;
58372;SDS011;44177;43.356;27.672;2023-03-29T03:09:52;5.20;;;3.80;;
58372;SDS011;44177;43.356;27.672;2023-03-29T03:12:18;6.65;;;3.97;;
58372;SDS011;44177;43.356;27.672;2023-03-29T03:14:43;5.93;;;4.20;;
58372;SDS011;44177;43.356;27.672;2023-03-29T03:17:09;6.22;;;3.65;;
58372;SDS011;44177;43.356;27.672;2023-03-29T03:19:34;5.32;;;4.13;;
58372;SDS011;44177;43.356;27.672;2023-03-29T03:22:00;6.82;;;3.83;;
58372;SDS011;44177;43.356;27.672;2023-03-29T03:24:26;7.68;;;4.22;;
58372;SDS011;44177;43.356;27.672;2023-03-29T03:26:52;5.38;;;3.10;;
58372;SDS011;44177;43.356;27.672;2023-03-29T03:29:17;6.82;;;3.72;;
58372;SDS011;44177;43.356;27.672;2023-03-29T03:31:43;7.72;;;3.53;;
58372;SDS011;44177;43.356;27.672;2023-03-29T03:34:08;5.35;;;3.63;;
58372;SDS011;44177;43.356;27.672;2023-03-29T03:36:35;5.25;;;3.53;;
58372;SDS011;44177;43.356;27.672;2023-03-29T03:39:01;5.20;;;4.23;;
58372;SDS011;44177;43.356;27.672;2023-03-29T03:41:29;5.63;;;3.75;;
58372;SDS011;44177;43.356;27.672;2023-03-29T03:43:56;4.70;;;3.60;;
58372;SDS011;44177;43.356;27.672;2023-03-29T03:46:22;5.25;;;4.30;;
58372;SDS011;44177;43.356;27.672;2023-03-29T03:48:47;6.70;;;4.38;;
58372;SDS011;44177;43.356;27.672;2023-03-29T03:51:13;5.38;;;3.55;;
58372;SDS011;44177;43.356;27.672;2023-03-29T03:53:38;6.13;;;3.67;;
58372;SDS011;44177;43.356;27.672;2023-03-29T03:56:04;5.75;;;4.10;;
58372;SDS011;44177;43.356;27.672;2023-03-29T03:58:33;5.97;;;4.33;;
58372;SDS011;44177;43.356;27.672;2023-03-29T04:01:00;6.35;;;3.92;;
58372;SDS011;44177;43.356;27.672;2023-03-29T04:03:25;5.27;;;3.90;;
58372;SDS011;44177;43.356;27.672;2023-03-29T04:05:51;5.65;;;4.25;;
58372;SDS011;44177;43.356;27.672;2023-03-29T04:08:17;4.10;;;3.25;;
58372;SDS011;44177;43.356;27.672;2023-03-29T04:10:50;7.50;;;4.28;;
58372;SDS011;44177;43.356;27.672;2023-03-29T04:13:17;6.57;;;4.70;;
58372;SDS011;44177;43.356;27.672;2023-03-29T04:15:43;5.75;;;4.25;;
58372;SDS011;44177;43.356;27.672;2023-03-29T04:18:10;5.65;;;4.07;;
58372;SDS011;44177;43.356;27.672;2023-03-29T04:20:36;7.40;;;5.05;;
58372;SDS011;44177;43.356;27.672;2023-03-29T04:23:03;22.80;;;13.03;;
58372;SDS011;44177;43.356;27.672;2023-03-29T04:25:28;14.67;;;10.13;;
58372;SDS011;44177;43.356;27.672;2023-03-29T04:27:54;28.63;;;18.33;;
58372;SDS011;44177;43.356;27.672;2023-03-29T04:30:20;11.83;;;8.60;;
58372;SDS011;44177;43.356;27.672;2023-03-29T04:32:45;11.57;;;7.97;;
58372;SDS011;44177;43.356;27.672;2023-03-29T04:35:11;7.93;;;5.60;;
58372;SDS011;44177;43.356;27.672;2023-03-29T04:37:37;6.47;;;5.43;;
58372;SDS011;44177;43.356;27.672;2023-03-29T04:40:05;5.55;;;4.13;;
58372;SDS011;44177;43.356;27.672;2023-03-29T04:42:38;5.72;;;4.45;;
58372;SDS011;44177;43.356;27.672;2023-03-29T04:45:06;6.88;;;4.25;;
58372;SDS011;44177;43.356;27.672;2023-03-29T04:47:32;6.77;;;4.27;;
58372;SDS011;44177;43.356;27.672;2023-03-29T04:50:00;7.45;;;5.13;;
58372;SDS011;44177;43.356;27.672;2023-03-29T04:52:26;7.97;;;4.30;;
58372;SDS011;44177;43.356;27.672;2023-03-29T04:54:51;5.80;;;4.97;;
58372;SDS011;44177;43.356;27.672;2023-03-29T04:57:17;6.57;;;5.32;;
58372;SDS011;44177;43.356;27.672;2023-03-29T04:59:42;4.95;;;3.90;;
58372;SDS011;44177;43.356;27.672;2023-03-29T05:02:07;6.85;;;4.85;;
58372;SDS011;44177;43.356;27.672;2023-03-29T05:04:33;9.20;;;5.10;;
58372;SDS011;44177;43.356;27.672;2023-03-29T05:06:59;8.00;;;5.35;;
58372;SDS011;44177;43.356;27.672;2023-03-29T05:09:27;5.97;;;4.18;;
58372;SDS011;44177;43.356;27.672;2023-03-29T05:11:53;7.45;;;5.13;;
58372;SDS011;44177;43.356;27.672;2023-03-29T05:14:18;7.30;;;5.20;;
58372;SDS011;44177;43.356;27.672;2023-03-29T05:16:44;6.72;;;4.40;;
58372;SDS011;44177;43.356;27.672;2023-03-29T05:19:10;7.50;;;5.05;;
58372;SDS011;44177;43.356;27.672;2023-03-29T05:21:37;7.30;;;4.90;;
58372;SDS011;44177;43.356;27.672;2023-03-29T05:24:02;6.75;;;4.57;;
58372;SDS011;44177;43.356;27.672;2023-03-29T05:26:28;6.20;;;3.75;;
58372;SDS011;44177;43.356;27.672;2023-03-29T05:28:54;6.35;;;4.03;;
58372;SDS011;44177;43.356;27.672;2023-03-29T05:31:21;4.40;;;3.83;;
58372;SDS011;44177;43.356;27.672;2023-03-29T05:33:46;6.15;;;4.32;;
58372;SDS011;44177;43.356;27.672;2023-03-29T05:36:13;7.00;;;4.25;;
58372;SDS011;44177;43.356;27.672;2023-03-29T05:38:40;5.82;;;4.20;;
58372;SDS011;44177;43.356;27.672;2023-03-29T05:41:09;7.47;;;4.20;;
58372;SDS011;44177;43.356;27.672;2023-03-29T05:43:35;4.82;;;3.83;;
58372;SDS011;44177;43.356;27.672;2023-03-29T05:46:00;5.03;;;3.78;;
58372;SDS011;44177;43.356;27.672;2023-03-29T05:48:26;5.75;;;3.92;;
58372;SDS011;44177;43.356;27.672;2023-03-29T05:50:53;6.18;;;3.90;;
58372;SDS011;44177;43.356;27.672;2023-03-29T05:53:21;5.10;;;3.70;;
58372;SDS011;44177;43.356;27.672;2023-03-29T05:55:47;4.88;;;3.50;;
58372;SDS011;44177;43.356;27.672;2023-03-29T05:58:14;3.85;;;3.15;;
58372;SDS011;44177;43.356;27.672;2023-03-29T06:00:42;6.50;;;4.00;;
58372;SDS011;44177;43.356;27.672;2023-03-29T06:03:11;5.45;;;3.33;;
58372;SDS011;44177;43.356;27.672;2023-03-29T06:05:46;5.03;;;3.47;;
58372;SDS011;44177;43.356;27.672;2023-03-29T06:08:14;4.63;;;3.17;;
58372;SDS011;44177;43.356;27.672;2023-03-29T06:10:40;4.18;;;2.70;;
58372;SDS011;44177;43.356;27.672;2023-03-29T06:13:06;2.95;;;2.42;;
58372;SDS011;44177;43.356;27.672;2023-03-29T06:15:32;3.08;;;2.30;;
58372;SDS011;44177;43.356;27.672;2023-03-29T06:17:59;3.63;;;2.90;;
58372;SDS011;44177;43.356;27.672;2023-03-29T06:20:28;3.15;;;2.55;;
58372;SDS011;44177;43.356;27.672;2023-03-29T06:22:54;5.38;;;2.78;;
58372;SDS011;44177;43.356;27.672;2023-03-29T06:25:19;5.45;;;2.53;;
58372;SDS011;44177;43.356;27.672;2023-03-29T06:27:45;3.83;;;2.67;;
58372;SDS011;44177;43.356;27.672;2023-03-29T06:30:11;3.88;;;2.10;;
58372;SDS011;44177;43.356;27.672;2023-03-29T06:32:39;2.75;;;2.45;;
58372;SDS011;44177;43.356;27.672;2023-03-29T06:35:06;2.50;;;2.10;;
58372;SDS011;44177;43.356;27.672;2023-03-29T06:37:32;3.85;;;2.60;;
58372;SDS011;44177;43.356;27.672;2023-03-29T06:39:57;5.10;;;3.22;;
58372;SDS011;44177;43.356;27.672;2023-03-29T06:42:23;5.18;;;2.72;;
58372;SDS011;44177;43.356;27.672;2023-03-29T06:44:49;3.33;;;2.65;;
58372;SDS011;44177;43.356;27.672;2023-03-29T06:47:15;3.53;;;3.08;;
58372;SDS011;44177;43.356;27.672;2023-03-29T06:49:41;6.03;;;3.13;;
58372;SDS011;44177;43.356;27.672;2023-03-29T06:52:07;12.77;;;6.53;;
58372;SDS011;44177;43.356;27.672;2023-03-29T06:54:33;7.80;;;4.45;;
58372;SDS011;44177;43.356;27.672;2023-03-29T06:56:59;5.25;;;3.78;;
58372;SDS011;44177;43.356;27.672;2023-03-29T06:59:25;3.08;;;2.13;;
58372;SDS011;44177;43.356;27.672;2023-03-29T07:01:51;3.28;;;2.67;;
58372;SDS011;44177;43.356;27.672;2023-03-29T07:04:18;2.90;;;2.25;;
58372;SDS011;44177;43.356;27.672;2023-03-29T07:06:44;5.70;;;2.95;;
58372;SDS011;44177;43.356;27.672;2023-03-29T07:09:15;7.03;;;3.78;;
58372;SDS011;44177;43.356;27.672;2023-03-29T07:11:42;4.70;;;3.10;;
58372;SDS011;44177;43.356;27.672;2023-03-29T07:14:08;3.97;;;2.55;;
58372;SDS011;44177;43.356;27.672;2023-03-29T07:16:34;4.90;;;3.22;;
58372;SDS011;44177;43.356;27.672;2023-03-29T07:19:02;5.80;;;4.97;;
58372;SDS011;44177;43.356;27.672;2023-03-29T07:21:28;4.75;;;3.65;;
58372;SDS011;44177;43.356;27.672;2023-03-29T07:23:55;4.13;;;2.85;;
58372;SDS011;44177;43.356;27.672;2023-03-29T07:26:22;5.05;;;2.92;;
58372;SDS011;44177;43.356;27.672;2023-03-29T07:28:49;2.97;;;2.45;;
58372;SDS011;44177;43.356;27.672;2023-03-29T07:31:15;5.30;;;3.45;;
58372;SDS011;44177;43.356;27.672;2023-03-29T07:33:41;3.60;;;2.85;;
58372;SDS011;44177;43.356;27.672;2023-03-29T07:36:08;4.93;;;3.38;;
58372;SDS011;44177;43.356;27.672;2023-03-29T07:38:35;4.65;;;3.00;;
58372;SDS011;44177;43.356;27.672;2023-03-29T07:41:02;3.75;;;2.90;;
58372;SDS011;44177;43.356;27.672;2023-03-29T07:43:29;3.65;;;2.92;;
58372;SDS011;44177;43.356;27.672;2023-03-29T07:45:55;5.65;;;3.65;;
58372;SDS011;44177;43.356;27.672;2023-03-29T07:48:25;5.00;;;3.30;;
58372;SDS011;44177;43.356;27.672;2023-03-29T07:50:50;6.28;;;3.42;;
58372;SDS011;44177;43.356;27.672;2023-03-29T07:53:16;4.57;;;3.00;;
58372;SDS011;44177;43.356;27.672;2023-03-29T07:55:42;5.03;;;3.25;;
58372;SDS011;44177;43.356;27.672;2023-03-29T07:58:11;5.78;;;3.72;;
58372;SDS011;44177;43.356;27.672;2023-03-29T08:00:38;6.28;;;4.28;;
58372;SDS011;44177;43.356;27.672;2023-03-29T08:03:04;6.45;;;4.70;;
58372;SDS011;44177;43.356;27.672;2023-03-29T08:05:29;7.03;;;3.92;;
58372;SDS011;44177;43.356;27.672;2023-03-29T08:07:55;4.07;;;3.13;;
58372;SDS011;44177;43.356;27.672;2023-03-29T08:10:21;4.63;;;3.45;;
58372;SDS011;44177;43.356;27.672;2023-03-29T08:12:47;5.05;;;3.35;;
58372;SDS011;44177;43.356;27.672;2023-03-29T08:15:14;4.45;;;3.58;;
58372;SDS011;44177;43.356;27.672;2023-03-29T08:17:40;5.38;;;3.17;;
58372;SDS011;44177;43.356;27.672;2023-03-29T08:20:08;3.90;;;3.35;;
58372;SDS011;44177;43.356;27.672;2023-03-29T08:22:35;4.32;;;3.03;;
58372;SDS011;44177;43.356;27.672;2023-03-29T08:25:01;4.38;;;3.42;;
58372;SDS011;44177;43.356;27.672;2023-03-29T08:27:27;5.18;;;3.88;;
58372;SDS011;44177;43.356;27.672;2023-03-29T08:29:52;5.07;;;3.40;;
58372;SDS011;44177;43.356;27.672;2023-03-29T08:32:18;3.90;;;3.47;;
58372;SDS011;44177;43.356;27.672;2023-03-29T08:34:44;5.00;;;4.10;;
58372;SDS011;44177;43.356;27.672;2023-03-29T08:37:11;5.97;;;4.18;;
58372;SDS011;44177;43.356;27.672;2023-03-29T08:39:36;5.68;;;4.00;;
58372;SDS011;44177;43.356;27.672;2023-03-29T08:45:01;6.85;;;5.57;;
58372;SDS011;44177;43.356;27.672;2023-03-29T08:50:53;24.05;;;10.90;;
58372;SDS011;44177;43.356;27.672;2023-03-29T08:56:21;7.30;;;6.50;;
58372;SDS011;44177;43.356;27.672;2023-03-29T08:58:50;6.57;;;5.68;;
58372;SDS011;44177;43.356;27.672;2023-03-29T09:01:16;6.22;;;5.55;;
58372;SDS011;44177;43.356;27.672;2023-03-29T09:03:47;5.07;;;4.57;;
58372;SDS011;44177;43.356;27.672;2023-03-29T09:06:22;5.40;;;4.72;;
58372;SDS011;44177;43.356;27.672;2023-03-29T09:08:48;5.28;;;4.78;;
58372;SDS011;44177;43.356;27.672;2023-03-29T09:21:49;5.23;;;4.30;;
58372;SDS011;44177;43.356;27.672;2023-03-29T09:24:27;5.70;;;4.60;;
58372;SDS011;44177;43.356;27.672;2023-03-29T09:29:57;6.00;;;4.28;;
58372;SDS011;44177;43.356;27.672;2023-03-29T09:32:35;5.95;;;4.32;;
58372;SDS011;44177;43.356;27.672;2023-03-29T09:35:20;6.18;;;4.60;;
58372;SDS011;44177;43.356;27.672;2023-03-29T09:37:46;6.25;;;4.13;;
58372;SDS011;44177;43.356;27.672;2023-03-29T09:40:19;4.55;;;4.15;;
58372;SDS011;44177;43.356;27.672;2023-03-29T09:42:56;4.72;;;4.18;;
58372;SDS011;44177;43.356;27.672;2023-03-29T09:45:25;4.18;;;3.67;;
58372;SDS011;44177;43.356;27.672;2023-03-29T09:47:51;4.40;;;3.50;;
58372;SDS011;44177;43.356;27.672;2023-03-29T09:50:39;4.32;;;3.50;;
58372;SDS011;44177;43.356;27.672;2023-03-29T09:53:07;4.18;;;3.60;;
58372;SDS011;44177;43.356;27.672;2023-03-29T09:55:32;4.80;;;3.20;;
58372;SDS011;44177;43.356;27.672;2023-03-29T09:58:01;3.78;;;3.38;;
58372;SDS011;44177;43.356;27.672;2023-03-29T10:03:01;4.10;;;3.40;;
58372;SDS011;44177;43.356;27.672;2023-03-29T10:05:28;4.03;;;3.55;;
58372;SDS011;44177;43.356;27.672;2023-03-29T10:07:57;4.32;;;3.60;;
58372;SDS011;44177;43.356;27.672;2023-03-29T10:10:29;3.88;;;3.17;;
58372;SDS011;44177;43.356;27.672;2023-03-29T10:18:25;4.88;;;3.90;;
58372;SDS011;44177;43.356;27.672;2023-03-29T10:20:56;5.30;;;3.20;;
58372;SDS011;44177;43.356;27.672;2023-03-29T10:23:28;5.05;;;2.75;;
58372;SDS011;44177;43.356;27.672;2023-03-29T10:25:55;4.32;;;3.00;;
58372;SDS011;44177;43.356;27.672;2023-03-29T10:28:21;4.35;;;3.67;;
58372;SDS011;44177;43.356;27.672;2023-03-29T10:30:52;4.00;;;3.20;;
58372;SDS011;44177;43.356;27.672;2023-03-29T10:33:20;3.30;;;2.60;;
58372;SDS011;44177;43.356;27.672;2023-03-29T10:35:48;3.08;;;2.00;;
58372;SDS011;44177;43.356;27.672;2023-03-29T10:38:16;3.35;;;2.20;;
58372;SDS011;44177;43.356;27.672;2023-03-29T10:40:47;2.83;;;2.25;;
58372;SDS011;44177;43.356;27.672;2023-03-29T10:45:54;4.32;;;2.67;;
58372;SDS011;44177;43.356;27.672;2023-03-29T10:48:27;2.15;;;1.80;;
58372;SDS011;44177;43.356;27.672;2023-03-29T10:50:56;4.55;;;2.67;;
58372;SDS011;44177;43.356;27.672;2023-03-29T10:53:27;2.25;;;2.05;;
58372;SDS011;44177;43.356;27.672;2023-03-29T10:56:15;4.57;;;1.58;;
58372;SDS011;44177;43.356;27.672;2023-03-29T11:04:14;1.55;;;1.40;;
58372;SDS011;44177;43.356;27.672;2023-03-29T11:09:52;3.05;;;1.50;;
58372;SDS011;44177;43.356;27.672;2023-03-29T11:12:33;3.20;;;1.38;;
58372;SDS011;44177;43.356;27.672;2023-03-29T11:18:01;4.18;;;1.80;;
58372;SDS011;44177;43.356;27.672;2023-03-29T11:23:20;2.35;;;1.70;;
58372;SDS011;44177;43.356;27.672;2023-03-29T11:26:10;2.40;;;1.98;;
58372;SDS011;44177;43.356;27.672;2023-03-29T11:28:51;2.95;;;1.60;;
58372;SDS011;44177;43.356;27.672;2023-03-29T11:34:39;2.20;;;1.80;;
58372;SDS011;44177;43.356;27.672;2023-03-29T11:37:17;3.40;;;2.05;;
58372;SDS011;44177;43.356;27.672;2023-03-29T11:42:32;2.63;;;2.20;;
58372;SDS011;44177;43.356;27.672;2023-03-29T11:45:00;2.33;;;1.95;;
58372;SDS011;44177;43.356;27.672;2023-03-29T11:47:30;2.55;;;2.00;;
58372;SDS011;44177;43.356;27.672;2023-03-29T11:57:51;3.60;;;3.30;;
58372;SDS011;44177;43.356;27.672;2023-03-29T12:06:01;3.78;;;3.03;;
58372;SDS011;44177;43.356;27.672;2023-03-29T12:08:32;2.90;;;2.55;;
58372;SDS011;44177;43.356;27.672;2023-03-29T12:11:10;2.83;;;2.55;;
58372;SDS011;44177;43.356;27.672;2023-03-29T12:13:57;3.67;;;2.80;;
58372;SDS011;44177;43.356;27.672;2023-03-29T12:21:37;5.00;;;2.90;;
58372;SDS011;44177;43.356;27.672;2023-03-29T12:24:09;3.58;;;3.10;;
58372;SDS011;44177;43.356;27.672;2023-03-29T12:29:40;6.20;;;3.50;;
58372;SDS011;44177;43.356;27.672;2023-03-29T12:40:54;8.65;;;4.72;;
58372;SDS011;44177;43.356;27.672;2023-03-29T12:43:25;4.03;;;3.60;;
58372;SDS011;44177;43.356;27.672;2023-03-29T12:45:57;6.80;;;3.95;;
58372;SDS011;44177;43.356;27.672;2023-03-29T12:48:29;4.30;;;3.90;;
58372;SDS011;44177;43.356;27.672;2023-03-29T12:51:12;6.15;;;4.78;;
58372;SDS011;44177;43.356;27.672;2023-03-29T12:53:52;5.45;;;4.47;;
58372;SDS011;44177;43.356;27.672;2023-03-29T12:56:34;4.80;;;3.80;;
58372;SDS011;44177;43.356;27.672;2023-03-29T12:59:15;5.40;;;4.30;;
58372;SDS011;44177;43.356;27.672;2023-03-29T13:01:57;3.58;;;3.20;;
58372;SDS011;44177;43.356;27.672;2023-03-29T13:04:47;3.60;;;2.92;;
58372;SDS011;44177;43.356;27.672;2023-03-29T13:07:58;10.95;;;6.35;;
58372;SDS011;44177;43.356;27.672;2023-03-29T13:10:27;4.63;;;3.67;;
58372;SDS011;44177;43.356;27.672;2023-03-29T13:13:06;3.55;;;2.53;;
58372;SDS011;44177;43.356;27.672;2023-03-29T13:15:39;3.47;;;3.00;;
58372;SDS011;44177;43.356;27.672;2023-03-29T13:18:23;3.95;;;2.33;;
58372;SDS011;44177;43.356;27.672;2023-03-29T13:21:21;3.45;;;2.63;;
58372;SDS011;44177;43.356;27.672;2023-03-29T13:31:57;4.00;;;3.00;;
58372;SDS011;44177;43.356;27.672;2023-03-29T13:34:29;4.50;;;3.70;;
58372;SDS011;44177;43.356;27.672;2023-03-29T13:39:53;5.03;;;3.80;;
58372;SDS011;44177;43.356;27.672;2023-03-29T13:42:24;6.13;;;4.53;;
58372;SDS011;44177;43.356;27.672;2023-03-29T13:45:15;3.58;;;3.28;;
58372;SDS011;44177;43.356;27.672;2023-03-29T13:47:59;3.75;;;3.35;;
58372;SDS011;44177;43.356;27.672;2023-03-29T13:56:08;5.18;;;3.50;;
58372;SDS011;44177;43.356;27.672;2023-03-29T14:01:28;6.45;;;3.67;;
58372;SDS011;44177;43.356;27.672;2023-03-29T14:04:00;3.42;;;3.13;;
58372;SDS011;44177;43.356;27.672;2023-03-29T14:06:33;4.03;;;3.60;;
58372;SDS011;44177;43.356;27.672;2023-03-29T14:09:03;3.90;;;3.30;;
58372;SDS011;44177;43.356;27.672;2023-03-29T14:11:32;3.30;;;3.00;;
58372;SDS011;44177;43.356;27.672;2023-03-29T14:14:00;3.70;;;3.28;;
58372;SDS011;44177;43.356;27.672;2023-03-29T14:16:30;4.38;;;3.63;;
58372;SDS011;44177;43.356;27.672;2023-03-29T14:19:01;4.03;;;3.40;;
58372;SDS011;44177;43.356;27.672;2023-03-29T14:21:36;7.03;;;4.13;;
58372;SDS011;44177;43.356;27.672;2023-03-29T14:24:01;4.50;;;3.60;;
58372;SDS011;44177;43.356;27.672;2023-03-29T14:26:31;4.78;;;4.10;;
58372;SDS011;44177;43.356;27.672;2023-03-29T14:28:58;5.63;;;3.95;;
58372;SDS011;44177;43.356;27.672;2023-03-29T14:31:33;4.97;;;3.88;;
58372;SDS011;44177;43.356;27.672;2023-03-29T14:34:01;4.93;;;3.65;;
58372;SDS011;44177;43.356;27.672;2023-03-29T14:36:29;4.03;;;3.63;;
58372;SDS011;44177;43.356;27.672;2023-03-29T14:39:09;4.65;;;3.88;;
58372;SDS011;44177;43.356;27.672;2023-03-29T14:41:36;4.75;;;3.90;;
58372;SDS011;44177;43.356;27.672;2023-03-29T14:44:03;7.35;;;4.30;;
58372;SDS011;44177;43.356;27.672;2023-03-29T14:46:30;4.18;;;3.78;;
58372;SDS011;44177;43.356;27.672;2023-03-29T14:48:58;5.65;;;3.83;;
58372;SDS011;44177;43.356;27.672;2023-03-29T14:51:24;3.70;;;3.38;;
58372;SDS011;44177;43.356;27.672;2023-03-29T14:53:58;6.15;;;4.55;;
58372;SDS011;44177;43.356;27.672;2023-03-29T14:56:26;4.53;;;4.03;;
58372;SDS011;44177;43.356;27.672;2023-03-29T14:58:56;4.72;;;3.55;;
58372;SDS011;44177;43.356;27.672;2023-03-29T15:01:24;5.32;;;3.88;;
58372;SDS011;44177;43.356;27.672;2023-03-29T15:06:17;6.43;;;4.75;;
58372;SDS011;44177;43.356;27.672;2023-03-29T15:08:43;5.55;;;4.00;;
58372;SDS011;44177;43.356;27.672;2023-03-29T15:13:38;4.22;;;3.78;;
58372;SDS011;44177;43.356;27.672;2023-03-29T15:16:05;6.68;;;4.10;;
58372;SDS011;44177;43.356;27.672;2023-03-29T15:18:32;4.82;;;3.92;;
58372;SDS011;44177;43.356;27.672;2023-03-29T15:21:03;5.32;;;3.78;;
58372;SDS011;44177;43.356;27.672;2023-03-29T15:23:34;5.68;;;4.07;;
58372;SDS011;44177;43.356;27.672;2023-03-29T15:26:11;4.68;;;3.88;;
58372;SDS011;44177;43.356;27.672;2023-03-29T15:28:44;3.70;;;3.40;;
58372;SDS011;44177;43.356;27.672;2023-03-29T15:31:12;4.03;;;3.53;;
58372;SDS011;44177;43.356;27.672;2023-03-29T15:33:41;5.35;;;3.55;;
58372;SDS011;44177;43.356;27.672;2023-03-29T15:36:08;4.78;;;3.30;;
58372;SDS011;44177;43.356;27.672;2023-03-29T15:38:35;4.63;;;3.80;;
58372;SDS011;44177;43.356;27.672;2023-03-29T15:41:02;3.83;;;3.42;;
58372;SDS011;44177;43.356;27.672;2023-03-29T15:43:28;4.43;;;3.78;;
58372;SDS011;44177;43.356;27.672;2023-03-29T15:45:55;4.22;;;3.83;;
58372;SDS011;44177;43.356;27.672;2023-03-29T15:48:25;4.28;;;3.47;;
58372;SDS011;44177;43.356;27.672;2023-03-29T15:50:52;4.18;;;3.45;;
58372;SDS011;44177;43.356;27.672;2023-03-29T15:53:20;4.75;;;3.83;;
58372;SDS011;44177;43.356;27.672;2023-03-29T15:55:48;6.53;;;3.75;;
58372;SDS011;44177;43.356;27.672;2023-03-29T15:58:22;5.20;;;4.40;;
58372;SDS011;44177;43.356;27.672;2023-03-29T16:00:51;4.63;;;3.97;;
58372;SDS011;44177;43.356;27.672;2023-03-29T16:03:20;5.72;;;4.32;;
58372;SDS011;44177;43.356;27.672;2023-03-29T16:05:46;8.68;;;5.75;;
58372;SDS011;44177;43.356;27.672;2023-03-29T16:08:11;6.60;;;3.78;;
58372;SDS011;44177;43.356;27.672;2023-03-29T16:10:38;6.03;;;4.22;;
58372;SDS011;44177;43.356;27.672;2023-03-29T16:13:05;4.97;;;3.80;;
58372;SDS011;44177;43.356;27.672;2023-03-29T16:15:31;6.28;;;4.40;;
58372;SDS011;44177;43.356;27.672;2023-03-29T16:17:58;6.43;;;4.85;;
58372;SDS011;44177;43.356;27.672;2023-03-29T16:20:24;7.05;;;4.57;;
58372;SDS011;44177;43.356;27.672;2023-03-29T16:22:50;6.40;;;4.80;;
58372;SDS011;44177;43.356;27.672;2023-03-29T16:25:18;8.07;;;4.85;;
58372;SDS011;44177;43.356;27.672;2023-03-29T16:27:48;7.07;;;5.13;;
58372;SDS011;44177;43.356;27.672;2023-03-29T16:30:15;9.23;;;5.18;;
58372;SDS011;44177;43.356;27.672;2023-03-29T16:32:41;7.15;;;5.68;;
58372;SDS011;44177;43.356;27.672;2023-03-29T16:35:26;6.00;;;4.60;;
58372;SDS011;44177;43.356;27.672;2023-03-29T16:37:54;6.90;;;5.10;;
58372;SDS011;44177;43.356;27.672;2023-03-29T16:40:19;6.95;;;4.90;;
58372;SDS011;44177;43.356;27.672;2023-03-29T16:42:46;8.07;;;5.60;;
58372;SDS011;44177;43.356;27.672;2023-03-29T16:45:12;7.03;;;5.25;;
58372;SDS011;44177;43.356;27.672;2023-03-29T16:47:38;7.05;;;4.47;;
58372;SDS011;44177;43.356;27.672;2023-03-29T16:50:09;6.80;;;4.93;;
58372;SDS011;44177;43.356;27.672;2023-03-29T16:52:39;6.85;;;5.57;;
58372;SDS011;44177;43.356;27.672;2023-03-29T16:55:05;7.82;;;6.30;;
58372;SDS011;44177;43.356;27.672;2023-03-29T16:57:31;7.97;;;6.35;;
58372;SDS011;44177;43.356;27.672;2023-03-29T16:59:57;9.13;;;6.70;;